sensor_id;sensor_type;location;lat;lon;timestamp;noise_LAeq;noise_LA_min;noise_LA_max;noise_LA01;noise_LA95
37833;Laerm;23678;48.778;9.160;2024-03-25T00:01:40;38.26;34.69;40.33;;
37833;Laerm;23678;48.778;9.160;2024-03-25T00:04:23;38.30;35.36;40.89;;
37833;Laerm;23678;48.778;9.160;2024-03-25T00:07:07;38.26;35.04;40.98;;
37833;Laerm;23678;48.778;9.160;2024-03-25T00:09:51;38.38;35.04;42.35;;
37833;Laerm;23678;48.778;9.160;2024-03-25T00:12:35;38.41;35.04;41.75;;
37833;Laerm;23678;48.778;9.160;2024-03-25T00:15:20;38.80;34.69;45.01;;
37833;Laerm;23678;48.778;9.160;2024-03-25T00:18:04;38.51;35.04;43.34;;
37833;Laerm;23678;48.778;9.160;2024-03-25T00:20:48;38.52;35.36;45.39;;
37833;Laerm;23678;48.778;9.160;2024-03-25T00:23:32;39.53;35.04;51.23;;
37833;Laerm;23678;48.778;9.160;2024-03-25T00:26:19;38.29;35.04;40.89;;
37833;Laerm;23678;48.778;9.160;2024-03-25T00:29:03;38.25;35.36;40.45;;
37833;Laerm;23678;48.778;9.160;2024-03-25T00:31:47;38.41;35.36;42.03;;
37833;Laerm;23678;48.778;9.160;2024-03-25T00:34:31;38.27;35.04;40.62;;
37833;Laerm;23678;48.778;9.160;2024-03-25T00:37:16;38.43;35.36;41.68;;
37833;Laerm;23678;48.778;9.160;2024-03-25T00:40:00;38.23;34.69;40.71;;
37833;Laerm;23678;48.778;9.160;2024-03-25T00:42:44;38.33;35.66;41.14;;
37833;Laerm;23678;48.778;9.160;2024-03-25T00:45:28;39.07;35.36;46.18;;
37833;Laerm;23678;48.778;9.160;2024-03-25T00:48:14;38.34;35.66;40.53;;
37833;Laerm;23678;48.778;9.160;2024-03-25T00:50:58;38.46;35.04;41.30;;
37833;Laerm;23678;48.778;9.160;2024-03-25T00:53:43;38.29;35.04;40.53;;
37833;Laerm;23678;48.778;9.160;2024-03-25T00:56:28;38.24;35.04;40.62;;
37833;Laerm;23678;48.778;9.160;2024-03-25T00:59:12;38.96;35.04;43.63;;
37833;Laerm;23678;48.778;9.160;2024-03-25T01:01:56;39.22;35.66;43.28;;
37833;Laerm;23678;48.778;9.160;2024-03-25T01:04:41;38.29;35.36;40.53;;
37833;Laerm;23678;48.778;9.160;2024-03-25T01:07:25;38.30;35.36;41.06;;
37833;Laerm;23678;48.778;9.160;2024-03-25T01:10:09;39.33;35.36;49.23;;
37833;Laerm;23678;48.778;9.160;2024-03-25T01:12:53;38.88;35.04;42.09;;
37833;Laerm;23678;48.778;9.160;2024-03-25T01:15:37;38.27;35.31;40.71;;
37833;Laerm;23678;48.778;9.160;2024-03-25T01:18:21;38.25;34.69;40.71;;
37833;Laerm;23678;48.778;9.160;2024-03-25T01:21:05;38.26;35.36;40.53;;
37833;Laerm;23678;48.778;9.160;2024-03-25T01:23:48;38.56;34.69;41.14;;
37833;Laerm;23678;48.778;9.160;2024-03-25T01:26:33;38.32;35.36;40.71;;
37833;Laerm;23678;48.778;9.160;2024-03-25T01:29:17;38.24;35.59;40.43;;
37833;Laerm;23678;48.778;9.160;2024-03-25T01:32:05;39.62;35.31;43.99;;
37833;Laerm;23678;48.778;9.160;2024-03-25T01:34:49;38.72;35.36;42.71;;
37833;Laerm;23678;48.778;9.160;2024-03-25T01:37:36;38.22;34.31;40.53;;
37833;Laerm;23678;48.778;9.160;2024-03-25T01:40:20;38.29;34.31;42.59;;
37833;Laerm;23678;48.778;9.160;2024-03-25T01:43:04;38.23;35.36;40.80;;
37833;Laerm;23678;48.778;9.160;2024-03-25T01:45:48;38.21;35.36;40.62;;
37833;Laerm;23678;48.778;9.160;2024-03-25T01:48:32;38.31;34.69;42.22;;
37833;Laerm;23678;48.778;9.160;2024-03-25T01:51:16;38.92;35.04;42.76;;
37833;Laerm;23678;48.778;9.160;2024-03-25T01:54:00;38.29;35.31;40.71;;
37833;Laerm;23678;48.778;9.160;2024-03-25T01:56:45;38.40;35.36;41.19;;
37833;Laerm;23678;48.778;9.160;2024-03-25T01:59:30;39.43;35.94;44.11;;
37833;Laerm;23678;48.778;9.160;2024-03-25T02:02:14;38.25;35.04;40.62;;
37833;Laerm;23678;48.778;9.160;2024-03-25T02:04:58;38.22;34.31;40.62;;
37833;Laerm;23678;48.778;9.160;2024-03-25T02:07:42;38.23;35.04;40.71;;
37833;Laerm;23678;48.778;9.160;2024-03-25T02:10:26;38.54;35.36;42.59;;
37833;Laerm;23678;48.778;9.160;2024-03-25T02:13:11;38.51;35.04;43.09;;
37833;Laerm;23678;48.778;9.160;2024-03-25T02:15:55;38.20;34.69;40.43;;
37833;Laerm;23678;48.778;9.160;2024-03-25T02:18:39;38.24;35.04;40.71;;
37833;Laerm;23678;48.778;9.160;2024-03-25T02:21:23;38.89;35.04;49.00;;
37833;Laerm;23678;48.778;9.160;2024-03-25T02:24:09;38.28;34.69;40.54;;
37833;Laerm;23678;48.778;9.160;2024-03-25T02:26:53;38.27;35.04;40.71;;
37833;Laerm;23678;48.778;9.160;2024-03-25T02:29:37;38.22;34.69;40.53;;
37833;Laerm;23678;48.778;9.160;2024-03-25T02:32:21;38.23;34.69;40.43;;
37833;Laerm;23678;48.778;9.160;2024-03-25T02:35:10;38.27;34.69;40.62;;
37833;Laerm;23678;48.778;9.160;2024-03-25T02:37:55;40.04;35.66;55.13;;
37833;Laerm;23678;48.778;9.160;2024-03-25T02:40:40;38.25;35.36;40.53;;
37833;Laerm;23678;48.778;9.160;2024-03-25T02:43:25;38.26;35.36;40.71;;
37833;Laerm;23678;48.778;9.160;2024-03-25T02:46:09;38.31;35.36;40.62;;
37833;Laerm;23678;48.778;9.160;2024-03-25T02:48:53;38.30;35.04;42.03;;
37833;Laerm;23678;48.778;9.160;2024-03-25T02:51:37;38.24;35.36;40.80;;
37833;Laerm;23678;48.778;9.160;2024-03-25T02:54:21;38.29;35.36;40.33;;
37833;Laerm;23678;48.778;9.160;2024-03-25T02:57:05;38.24;35.04;42.88;;
37833;Laerm;23678;48.778;9.160;2024-03-25T02:59:49;38.26;35.04;40.98;;
37833;Laerm;23678;48.778;9.160;2024-03-25T03:02:33;38.25;35.36;40.43;;
37833;Laerm;23678;48.778;9.160;2024-03-25T03:05:18;38.24;35.36;40.80;;
37833;Laerm;23678;48.778;9.160;2024-03-25T03:08:01;38.35;35.36;42.59;;
37833;Laerm;23678;48.778;9.160;2024-03-25T03:10:45;38.32;35.36;44.69;;
37833;Laerm;23678;48.778;9.160;2024-03-25T03:13:29;38.27;34.69;42.76;;
37833;Laerm;23678;48.778;9.160;2024-03-25T03:16:13;38.29;35.36;41.61;;
37833;Laerm;23678;48.778;9.160;2024-03-25T03:18:57;39.16;35.36;56.38;;
37833;Laerm;23678;48.778;9.160;2024-03-25T03:21:41;44.09;35.04;61.14;;
37833;Laerm;23678;48.778;9.160;2024-03-25T03:24:25;44.12;35.04;61.38;;
37833;Laerm;23678;48.778;9.160;2024-03-25T03:27:09;45.28;35.04;62.10;;
37833;Laerm;23678;48.778;9.160;2024-03-25T03:29:53;45.30;35.36;62.41;;
37833;Laerm;23678;48.778;9.160;2024-03-25T03:32:37;45.29;35.04;61.06;;
37833;Laerm;23678;48.778;9.160;2024-03-25T03:35:21;45.41;34.31;61.76;;
37833;Laerm;23678;48.778;9.160;2024-03-25T03:38:05;38.99;35.36;44.73;;
37833;Laerm;23678;48.778;9.160;2024-03-25T03:40:56;38.91;35.36;43.86;;
37833;Laerm;23678;48.778;9.160;2024-03-25T03:43:40;42.95;35.66;58.34;;
37833;Laerm;23678;48.778;9.160;2024-03-25T03:46:24;39.29;34.69;44.62;;
37833;Laerm;23678;48.778;9.160;2024-03-25T03:49:08;39.50;35.94;44.43;;
37833;Laerm;23678;48.778;9.160;2024-03-25T03:51:52;39.36;35.66;45.66;;
37833;Laerm;23678;48.778;9.160;2024-03-25T03:54:36;39.44;35.94;46.07;;
37833;Laerm;23678;48.778;9.160;2024-03-25T03:57:20;39.89;35.59;45.11;;
37833;Laerm;23678;48.778;9.160;2024-03-25T04:00:04;39.45;35.94;47.34;;
37833;Laerm;23678;48.778;9.160;2024-03-25T04:02:48;39.05;35.66;45.97;;
37833;Laerm;23678;48.778;9.160;2024-03-25T04:05:32;39.23;35.66;44.54;;
37833;Laerm;23678;48.778;9.160;2024-03-25T04:08:16;39.87;35.36;49.52;;
37833;Laerm;23678;48.778;9.160;2024-03-25T04:11:02;39.48;35.66;45.42;;
37833;Laerm;23678;48.778;9.160;2024-03-25T04:13:46;39.73;35.94;45.75;;
37833;Laerm;23678;48.778;9.160;2024-03-25T04:16:31;39.62;35.36;45.54;;
37833;Laerm;23678;48.778;9.160;2024-03-25T04:19:15;39.51;35.86;46.87;;
37833;Laerm;23678;48.778;9.160;2024-03-25T04:21:59;39.47;35.36;46.05;;
37833;Laerm;23678;48.778;9.160;2024-03-25T04:24:43;39.53;35.36;45.66;;
37833;Laerm;23678;48.778;9.160;2024-03-25T04:27:27;39.65;35.04;45.94;;
37833;Laerm;23678;48.778;9.160;2024-03-25T04:30:11;39.51;35.04;46.78;;
37833;Laerm;23678;48.778;9.160;2024-03-25T04:32:55;43.86;35.36;57.60;;
37833;Laerm;23678;48.778;9.160;2024-03-25T04:35:39;44.72;35.36;59.91;;
37833;Laerm;23678;48.778;9.160;2024-03-25T04:38:23;44.63;35.94;62.43;;
37833;Laerm;23678;48.778;9.160;2024-03-25T04:41:08;43.27;35.94;58.11;;
37833;Laerm;23678;48.778;9.160;2024-03-25T04:43:51;39.91;35.94;55.15;;
37833;Laerm;23678;48.778;9.160;2024-03-25T04:46:36;39.10;35.94;43.86;;
37833;Laerm;23678;48.778;9.160;2024-03-25T04:49:20;40.32;35.04;50.19;;
37833;Laerm;23678;48.778;9.160;2024-03-25T04:52:04;39.70;34.69;52.09;;
37833;Laerm;23678;48.778;9.160;2024-03-25T04:54:48;40.89;35.36;55.13;;
37833;Laerm;23678;48.778;9.160;2024-03-25T04:57:32;39.56;35.66;52.21;;
37833;Laerm;23678;48.778;9.160;2024-03-25T05:00:17;39.81;35.66;52.45;;
37833;Laerm;23678;48.778;9.160;2024-03-25T05:03:01;39.76;35.66;50.72;;
37833;Laerm;23678;48.778;9.160;2024-03-25T05:05:45;39.18;35.36;50.80;;
37833;Laerm;23678;48.778;9.160;2024-03-25T05:08:29;38.77;35.04;42.59;;
37833;Laerm;23678;48.778;9.160;2024-03-25T05:11:13;39.23;35.66;47.08;;
37833;Laerm;23678;48.778;9.160;2024-03-25T05:13:57;38.94;35.01;43.77;;
37833;Laerm;23678;48.778;9.160;2024-03-25T05:16:40;40.37;35.86;53.26;;
37833;Laerm;23678;48.778;9.160;2024-03-25T05:19:24;39.11;35.66;54.16;;
37833;Laerm;23678;48.778;9.160;2024-03-25T05:22:08;39.25;35.94;45.48;;
37833;Laerm;23678;48.778;9.160;2024-03-25T05:24:52;39.26;35.94;45.20;;
37833;Laerm;23678;48.778;9.160;2024-03-25T05:27:36;40.21;35.36;48.84;;
37833;Laerm;23678;48.778;9.160;2024-03-25T05:30:20;39.91;35.94;48.21;;
37833;Laerm;23678;48.778;9.160;2024-03-25T05:33:04;40.61;35.94;56.95;;
37833;Laerm;23678;48.778;9.160;2024-03-25T05:35:48;40.23;36.20;48.95;;
37833;Laerm;23678;48.778;9.160;2024-03-25T05:38:32;41.15;36.45;50.67;;
37833;Laerm;23678;48.778;9.160;2024-03-25T05:41:16;39.95;35.94;44.73;;
37833;Laerm;23678;48.778;9.160;2024-03-25T05:44:00;39.09;35.66;41.89;;
37833;Laerm;23678;48.778;9.160;2024-03-25T05:46:44;40.23;36.45;49.74;;
37833;Laerm;23678;48.778;9.160;2024-03-25T05:49:28;40.33;35.94;48.00;;
37833;Laerm;23678;48.778;9.160;2024-03-25T05:52:12;40.67;35.94;47.22;;
37833;Laerm;23678;48.778;9.160;2024-03-25T05:54:56;40.52;36.20;50.69;;
37833;Laerm;23678;48.778;9.160;2024-03-25T05:57:40;42.98;36.91;55.74;;
37833;Laerm;23678;48.778;9.160;2024-03-25T06:00:24;41.30;36.20;56.25;;
37833;Laerm;23678;48.778;9.160;2024-03-25T06:03:08;40.52;36.45;54.93;;
37833;Laerm;23678;48.778;9.160;2024-03-25T06:05:52;41.45;35.36;55.35;;
37833;Laerm;23678;48.778;9.160;2024-03-25T06:08:36;42.02;37.12;52.68;;
37833;Laerm;23678;48.778;9.160;2024-03-25T06:11:21;41.40;37.12;49.08;;
37833;Laerm;23678;48.778;9.160;2024-03-25T06:14:05;40.63;35.36;57.17;;
37833;Laerm;23678;48.778;9.160;2024-03-25T06:16:49;40.68;35.94;51.82;;
37833;Laerm;23678;48.778;9.160;2024-03-25T06:19:33;40.85;37.12;47.48;;
37833;Laerm;23678;48.778;9.160;2024-03-25T06:22:17;42.66;35.66;60.74;;
37833;Laerm;23678;48.778;9.160;2024-03-25T06:25:01;39.16;36.20;41.75;;
37833;Laerm;23678;48.778;9.160;2024-03-25T06:27:46;42.07;36.91;52.95;;
37833;Laerm;23678;48.778;9.160;2024-03-25T06:30:30;40.59;36.45;51.77;;
37833;Laerm;23678;48.778;9.160;2024-03-25T06:33:32;40.31;35.94;51.37;;
37833;Laerm;23678;48.778;9.160;2024-03-25T06:36:35;40.03;35.94;49.25;;
37833;Laerm;23678;48.778;9.160;2024-03-25T06:39:19;40.26;36.45;52.22;;
37833;Laerm;23678;48.778;9.160;2024-03-25T06:42:03;45.30;36.20;58.97;;
37833;Laerm;23678;48.778;9.160;2024-03-25T06:44:47;40.87;36.45;48.69;;
37833;Laerm;23678;48.778;9.160;2024-03-25T06:47:33;41.99;37.12;54.52;;
37833;Laerm;23678;48.778;9.160;2024-03-25T06:50:17;40.39;36.45;50.57;;
37833;Laerm;23678;48.778;9.160;2024-03-25T06:53:01;39.82;36.20;46.20;;
37833;Laerm;23678;48.778;9.160;2024-03-25T06:55:52;44.17;36.45;62.69;;
37833;Laerm;23678;48.778;9.160;2024-03-25T06:58:36;40.83;36.45;47.93;;
37833;Laerm;23678;48.778;9.160;2024-03-25T07:01:20;41.12;36.69;53.82;;
37833;Laerm;23678;48.778;9.160;2024-03-25T07:04:04;41.68;36.91;46.55;;
37833;Laerm;23678;48.778;9.160;2024-03-25T07:06:48;41.18;36.91;52.67;;
37833;Laerm;23678;48.778;9.160;2024-03-25T07:09:32;40.64;36.45;55.02;;
37833;Laerm;23678;48.778;9.160;2024-03-25T07:12:16;41.94;37.12;50.92;;
37833;Laerm;23678;48.778;9.160;2024-03-25T07:15:00;40.79;36.45;49.53;;
37833;Laerm;23678;48.778;9.160;2024-03-25T07:17:44;41.11;36.91;50.50;;
37833;Laerm;23678;48.778;9.160;2024-03-25T07:20:29;41.99;36.20;55.62;;
37833;Laerm;23678;48.778;9.160;2024-03-25T07:23:13;41.34;36.45;49.00;;
37833;Laerm;23678;48.778;9.160;2024-03-25T07:25:57;41.79;36.34;52.18;;
37833;Laerm;23678;48.778;9.160;2024-03-25T07:28:41;41.12;36.69;51.20;;
37833;Laerm;23678;48.778;9.160;2024-03-25T07:31:25;40.58;36.45;57.55;;
37833;Laerm;23678;48.778;9.160;2024-03-25T07:34:09;40.93;35.94;51.85;;
37833;Laerm;23678;48.778;9.160;2024-03-25T07:36:55;41.11;36.91;51.13;;
37833;Laerm;23678;48.778;9.160;2024-03-25T07:39:39;40.40;36.20;50.48;;
37833;Laerm;23678;48.778;9.160;2024-03-25T07:42:23;41.25;35.94;49.34;;
37833;Laerm;23678;48.778;9.160;2024-03-25T07:45:07;39.88;36.45;47.70;;
37833;Laerm;23678;48.778;9.160;2024-03-25T07:47:51;40.59;36.56;54.06;;
37833;Laerm;23678;48.778;9.160;2024-03-25T07:50:35;39.87;36.20;45.66;;
37833;Laerm;23678;48.778;9.160;2024-03-25T07:53:19;42.19;35.66;57.08;;
37833;Laerm;23678;48.778;9.160;2024-03-25T07:56:03;41.06;35.66;50.23;;
37833;Laerm;23678;48.778;9.160;2024-03-25T07:58:48;41.47;36.56;49.88;;
37833;Laerm;23678;48.778;9.160;2024-03-25T08:01:32;41.50;35.94;50.80;;
37833;Laerm;23678;48.778;9.160;2024-03-25T08:04:16;41.63;36.20;53.96;;
37833;Laerm;23678;48.778;9.160;2024-03-25T08:07:00;40.67;36.45;51.21;;
37833;Laerm;23678;48.778;9.160;2024-03-25T08:09:44;41.02;37.12;46.59;;
37833;Laerm;23678;48.778;9.160;2024-03-25T08:12:28;41.23;36.45;51.82;;
37833;Laerm;23678;48.778;9.160;2024-03-25T08:15:12;40.69;36.69;50.57;;
37833;Laerm;23678;48.778;9.160;2024-03-25T08:17:56;40.26;35.36;45.36;;
37833;Laerm;23678;48.778;9.160;2024-03-25T08:20:41;39.81;36.20;48.25;;
37833;Laerm;23678;48.778;9.160;2024-03-25T08:23:24;41.21;35.94;49.70;;
37833;Laerm;23678;48.778;9.160;2024-03-25T08:26:08;41.60;36.20;51.08;;
37833;Laerm;23678;48.778;9.160;2024-03-25T08:28:53;44.11;35.94;66.35;;
37833;Laerm;23678;48.778;9.160;2024-03-25T08:31:37;40.26;36.20;53.03;;
37833;Laerm;23678;48.778;9.160;2024-03-25T08:34:21;40.20;34.69;46.05;;
37833;Laerm;23678;48.778;9.160;2024-03-25T08:37:05;42.49;37.12;54.48;;
37833;Laerm;23678;48.778;9.160;2024-03-25T08:39:49;41.87;36.91;51.96;;
37833;Laerm;23678;48.778;9.160;2024-03-25T08:42:33;41.07;36.69;53.60;;
37833;Laerm;23678;48.778;9.160;2024-03-25T08:45:17;40.46;35.66;49.04;;
37833;Laerm;23678;48.778;9.160;2024-03-25T08:48:01;40.40;36.20;49.94;;
37833;Laerm;23678;48.778;9.160;2024-03-25T08:50:44;42.94;35.94;55.68;;
37833;Laerm;23678;48.778;9.160;2024-03-25T08:53:29;40.60;35.94;49.74;;
37833;Laerm;23678;48.778;9.160;2024-03-25T08:56:12;40.15;36.20;58.25;;
37833;Laerm;23678;48.778;9.160;2024-03-25T08:58:56;41.40;35.66;51.95;;
37833;Laerm;23678;48.778;9.160;2024-03-25T09:01:41;41.02;36.20;49.39;;
37833;Laerm;23678;48.778;9.160;2024-03-25T09:04:25;41.51;36.91;51.10;;
37833;Laerm;23678;48.778;9.160;2024-03-25T09:07:09;46.32;35.59;81.41;;
37833;Laerm;23678;48.778;9.160;2024-03-25T09:09:53;41.75;38.21;51.19;;
37833;Laerm;23678;48.778;9.160;2024-03-25T09:12:55;42.20;38.37;55.10;;
37833;Laerm;23678;48.778;9.160;2024-03-25T09:15:39;40.65;38.05;49.24;;
37833;Laerm;23678;48.778;9.160;2024-03-25T09:18:23;40.91;36.91;50.26;;
37833;Laerm;23678;48.778;9.160;2024-03-25T09:21:07;40.99;36.45;49.33;;
37833;Laerm;23678;48.778;9.160;2024-03-25T09:23:51;41.61;36.69;47.70;;
37833;Laerm;23678;48.778;9.160;2024-03-25T09:26:35;41.11;36.45;51.64;;
37833;Laerm;23678;48.778;9.160;2024-03-25T09:29:19;41.59;35.94;49.04;;
37833;Laerm;23678;48.778;9.160;2024-03-25T09:32:03;41.39;36.20;54.64;;
37833;Laerm;23678;48.778;9.160;2024-03-25T09:34:47;44.63;35.66;55.07;;
37833;Laerm;23678;48.778;9.160;2024-03-25T09:37:34;47.72;36.10;57.68;;
37833;Laerm;23678;48.778;9.160;2024-03-25T09:40:18;47.47;36.91;60.61;;
37833;Laerm;23678;48.778;9.160;2024-03-25T09:43:02;44.76;36.69;55.94;;
37833;Laerm;23678;48.778;9.160;2024-03-25T09:45:47;41.83;38.05;57.86;;
37833;Laerm;23678;48.778;9.160;2024-03-25T09:48:32;42.55;37.70;50.85;;
37833;Laerm;23678;48.778;9.160;2024-03-25T09:51:16;42.31;37.88;55.76;;
37833;Laerm;23678;48.778;9.160;2024-03-25T09:54:01;41.93;37.32;50.22;;
37833;Laerm;23678;48.778;9.160;2024-03-25T09:56:45;43.88;35.94;62.17;;
37833;Laerm;23678;48.778;9.160;2024-03-25T09:59:29;41.33;36.45;62.94;;
37833;Laerm;23678;48.778;9.160;2024-03-25T10:02:13;40.95;36.20;51.25;;
37833;Laerm;23678;48.778;9.160;2024-03-25T10:04:57;40.79;36.10;51.51;;
37833;Laerm;23678;48.778;9.160;2024-03-25T10:07:41;42.74;35.94;55.97;;
37833;Laerm;23678;48.778;9.160;2024-03-25T10:10:26;41.31;36.69;48.29;;
37833;Laerm;23678;48.778;9.160;2024-03-25T10:13:09;41.46;36.20;50.57;;
37833;Laerm;23678;48.778;9.160;2024-03-25T10:15:54;41.49;36.20;53.29;;
37833;Laerm;23678;48.778;9.160;2024-03-25T10:18:38;40.75;36.20;44.51;;
37833;Laerm;23678;48.778;9.160;2024-03-25T10:21:22;40.43;34.69;44.83;;
37833;Laerm;23678;48.778;9.160;2024-03-25T10:24:06;41.09;35.36;53.00;;
37833;Laerm;23678;48.778;9.160;2024-03-25T10:26:50;40.97;36.77;45.83;;
37833;Laerm;23678;48.778;9.160;2024-03-25T10:29:36;43.06;37.12;63.49;;
37833;Laerm;23678;48.778;9.160;2024-03-25T10:32:19;41.14;35.66;47.18;;
37833;Laerm;23678;48.778;9.160;2024-03-25T10:35:04;40.98;36.91;55.99;;
37833;Laerm;23678;48.778;9.160;2024-03-25T10:37:47;41.13;35.94;49.29;;
37833;Laerm;23678;48.778;9.160;2024-03-25T10:40:32;40.59;36.20;43.54;;
37833;Laerm;23678;48.778;9.160;2024-03-25T10:43:16;40.92;35.36;49.65;;
37833;Laerm;23678;48.778;9.160;2024-03-25T10:46:01;40.44;35.36;50.28;;
37833;Laerm;23678;48.778;9.160;2024-03-25T10:48:47;41.38;33.44;51.50;;
37833;Laerm;23678;48.778;9.160;2024-03-25T10:51:31;41.41;35.94;52.56;;
37833;Laerm;23678;48.778;9.160;2024-03-25T10:54:16;41.26;36.56;48.85;;
37833;Laerm;23678;48.778;9.160;2024-03-25T10:57:01;40.68;35.66;45.54;;
37833;Laerm;23678;48.778;9.160;2024-03-25T10:59:47;40.56;35.36;46.10;;
37833;Laerm;23678;48.778;9.160;2024-03-25T11:02:31;40.41;34.31;51.19;;
37833;Laerm;23678;48.778;9.160;2024-03-25T11:05:15;40.39;34.69;45.66;;
37833;Laerm;23678;48.778;9.160;2024-03-25T11:08:09;39.89;33.90;46.89;;
37833;Laerm;23678;48.778;9.160;2024-03-25T11:10:53;41.51;35.04;50.38;;
37833;Laerm;23678;48.778;9.160;2024-03-25T11:13:37;40.38;34.34;49.30;;
37833;Laerm;23678;48.778;9.160;2024-03-25T11:16:31;40.79;35.04;48.03;;
37833;Laerm;23678;48.778;9.160;2024-03-25T11:19:15;40.64;34.31;46.52;;
37833;Laerm;23678;48.778;9.160;2024-03-25T11:22:08;39.98;34.31;44.23;;
37833;Laerm;23678;48.778;9.160;2024-03-25T11:24:54;41.96;36.69;52.18;;
37833;Laerm;23678;48.778;9.160;2024-03-25T11:27:38;39.06;33.44;48.45;;
37833;Laerm;23678;48.778;9.160;2024-03-25T11:30:22;39.20;29.92;47.77;;
37833;Laerm;23678;48.778;9.160;2024-03-25T11:33:09;42.54;32.35;55.77;;
37833;Laerm;23678;48.778;9.160;2024-03-25T11:35:53;38.70;32.93;47.10;;
37833;Laerm;23678;48.778;9.160;2024-03-25T11:38:37;38.92;31.68;44.42;;
37833;Laerm;23678;48.778;9.160;2024-03-25T11:41:24;40.18;31.68;51.33;;
37833;Laerm;23678;48.778;9.160;2024-03-25T11:44:08;38.60;31.68;45.51;;
37833;Laerm;23678;48.778;9.160;2024-03-25T11:46:52;38.46;30.89;48.08;;
37833;Laerm;23678;48.778;9.160;2024-03-25T11:49:38;39.95;31.68;53.47;;
37833;Laerm;23678;48.778;9.160;2024-03-25T11:52:23;39.02;32.93;51.09;;
37833;Laerm;23678;48.778;9.160;2024-03-25T11:55:07;38.32;29.92;48.70;;
37833;Laerm;23678;48.778;9.160;2024-03-25T11:57:56;39.60;30.89;49.02;;
37833;Laerm;23678;48.778;9.160;2024-03-25T12:00:47;39.08;32.93;49.94;;
37833;Laerm;23678;48.778;9.160;2024-03-25T12:03:35;38.80;32.35;46.48;;
37833;Laerm;23678;48.778;9.160;2024-03-25T12:06:19;39.41;32.35;54.59;;
37833;Laerm;23678;48.778;9.160;2024-03-25T12:09:03;43.89;31.68;70.34;;
37833;Laerm;23678;48.778;9.160;2024-03-25T12:12:07;38.52;31.68;47.08;;
37833;Laerm;23678;48.778;9.160;2024-03-25T12:14:52;39.83;32.35;51.11;;
37833;Laerm;23678;48.778;9.160;2024-03-25T12:17:36;38.89;32.93;44.62;;
37833;Laerm;23678;48.778;9.160;2024-03-25T12:20:20;38.25;31.68;42.93;;
37833;Laerm;23678;48.778;9.160;2024-03-25T12:23:04;44.40;33.44;58.81;;
37833;Laerm;23678;48.778;9.160;2024-03-25T12:25:49;37.83;32.35;43.24;;
37833;Laerm;23678;48.778;9.160;2024-03-25T12:28:33;40.17;32.93;49.68;;
37833;Laerm;23678;48.778;9.160;2024-03-25T12:31:22;38.93;32.93;46.45;;
37833;Laerm;23678;48.778;9.160;2024-03-25T12:34:12;39.85;32.35;49.52;;
37833;Laerm;23678;48.778;9.160;2024-03-25T12:37:02;39.17;32.35;48.25;;
37833;Laerm;23678;48.778;9.160;2024-03-25T12:39:49;38.73;31.68;42.35;;
37833;Laerm;23678;48.778;9.160;2024-03-25T12:42:34;40.70;32.35;44.94;;
37833;Laerm;23678;48.778;9.160;2024-03-25T12:45:19;38.53;31.68;48.87;;
37833;Laerm;23678;48.778;9.160;2024-03-25T12:48:03;38.79;30.89;48.96;;
37833;Laerm;23678;48.778;9.160;2024-03-25T12:50:47;39.83;32.35;48.05;;
37833;Laerm;23678;48.778;9.160;2024-03-25T12:53:31;38.37;30.89;44.62;;
37833;Laerm;23678;48.778;9.160;2024-03-25T12:56:15;39.34;29.92;47.77;;
37833;Laerm;23678;48.778;9.160;2024-03-25T12:58:59;41.64;31.68;54.79;;
37833;Laerm;23678;48.778;9.160;2024-03-25T13:01:43;38.40;30.89;46.02;;
37833;Laerm;23678;48.778;9.160;2024-03-25T13:04:27;38.66;31.68;47.84;;
37833;Laerm;23678;48.778;9.160;2024-03-25T13:07:11;38.26;29.92;43.68;;
37833;Laerm;23678;48.778;9.160;2024-03-25T13:09:55;38.60;31.33;46.73;;
37833;Laerm;23678;48.778;9.160;2024-03-25T13:12:39;38.73;32.35;45.20;;
37833;Laerm;23678;48.778;9.160;2024-03-25T13:15:23;39.05;30.89;46.79;;
37833;Laerm;23678;48.778;9.160;2024-03-25T13:18:08;37.89;29.92;43.29;;
37833;Laerm;23678;48.778;9.160;2024-03-25T13:20:52;38.05;29.92;43.94;;
37833;Laerm;23678;48.778;9.160;2024-03-25T13:23:36;38.76;30.89;45.77;;
37833;Laerm;23678;48.778;9.160;2024-03-25T13:26:20;39.18;29.92;46.91;;
37833;Laerm;23678;48.778;9.160;2024-03-25T13:29:04;39.18;32.35;44.03;;
37833;Laerm;23678;48.778;9.160;2024-03-25T13:31:48;38.20;30.89;44.43;;
37833;Laerm;23678;48.778;9.160;2024-03-25T13:34:32;40.07;32.93;46.62;;
37833;Laerm;23678;48.778;9.160;2024-03-25T13:37:16;41.03;32.35;53.53;;
37833;Laerm;23678;48.778;9.160;2024-03-25T13:40:00;37.83;29.92;43.81;;
37833;Laerm;23678;48.778;9.160;2024-03-25T13:42:44;38.43;32.35;44.35;;
37833;Laerm;23678;48.778;9.160;2024-03-25T13:45:29;39.64;31.68;47.65;;
37833;Laerm;23678;48.778;9.160;2024-03-25T13:48:13;38.91;32.35;45.39;;
37833;Laerm;23678;48.778;9.160;2024-03-25T13:50:57;38.54;29.92;44.87;;
37833;Laerm;23678;48.778;9.160;2024-03-25T13:53:41;39.23;30.89;44.87;;
37833;Laerm;23678;48.778;9.160;2024-03-25T13:56:25;39.27;32.35;47.28;;
37833;Laerm;23678;48.778;9.160;2024-03-25T13:59:09;39.24;32.93;46.64;;
37833;Laerm;23678;48.778;9.160;2024-03-25T14:01:53;39.69;32.58;51.64;;
37833;Laerm;23678;48.778;9.160;2024-03-25T14:04:37;39.23;30.89;50.13;;
37833;Laerm;23678;48.778;9.160;2024-03-25T14:07:21;39.01;30.89;53.31;;
37833;Laerm;23678;48.778;9.160;2024-03-25T14:10:05;38.89;30.89;55.43;;
37833;Laerm;23678;48.778;9.160;2024-03-25T14:12:49;38.26;29.92;50.58;;
37833;Laerm;23678;48.778;9.160;2024-03-25T14:15:33;38.69;32.35;47.06;;
37833;Laerm;23678;48.778;9.160;2024-03-25T14:18:17;38.93;32.35;44.39;;
37833;Laerm;23678;48.778;9.160;2024-03-25T14:21:02;39.80;32.93;51.68;;
37833;Laerm;23678;48.778;9.160;2024-03-25T14:23:45;40.39;32.35;50.41;;
37833;Laerm;23678;48.778;9.160;2024-03-25T14:26:29;40.89;32.58;50.06;;
37833;Laerm;23678;48.778;9.160;2024-03-25T14:29:13;39.99;31.68;48.31;;
37833;Laerm;23678;48.778;9.160;2024-03-25T14:31:57;39.85;32.93;46.64;;
37833;Laerm;23678;48.778;9.160;2024-03-25T14:34:41;40.00;32.35;48.61;;
37833;Laerm;23678;48.778;9.160;2024-03-25T14:37:25;38.92;31.68;49.30;;
37833;Laerm;23678;48.778;9.160;2024-03-25T14:40:09;39.35;31.68;44.73;;
37833;Laerm;23678;48.778;9.160;2024-03-25T14:42:54;39.41;32.93;45.48;;
37833;Laerm;23678;48.778;9.160;2024-03-25T14:45:38;40.36;33.90;52.57;;
37833;Laerm;23678;48.778;9.160;2024-03-25T14:48:22;39.52;32.35;48.40;;
37833;Laerm;23678;48.778;9.160;2024-03-25T14:51:06;38.62;31.68;48.95;;
37833;Laerm;23678;48.778;9.160;2024-03-25T14:53:50;39.58;30.89;46.02;;
37833;Laerm;23678;48.778;9.160;2024-03-25T14:56:34;39.57;29.92;47.42;;
37833;Laerm;23678;48.778;9.160;2024-03-25T14:59:18;39.66;31.68;47.90;;
37833;Laerm;23678;48.778;9.160;2024-03-25T15:02:02;39.16;31.68;49.35;;
37833;Laerm;23678;48.778;9.160;2024-03-25T15:04:47;38.27;29.92;45.54;;
37833;Laerm;23678;48.778;9.160;2024-03-25T15:07:32;40.61;32.35;50.29;;
37833;Laerm;23678;48.778;9.160;2024-03-25T15:10:16;39.98;30.89;54.04;;
37833;Laerm;23678;48.778;9.160;2024-03-25T15:13:00;38.42;29.92;49.78;;
37833;Laerm;23678;48.778;9.160;2024-03-25T15:15:44;38.89;32.35;48.29;;
37833;Laerm;23678;48.778;9.160;2024-03-25T15:18:27;39.02;28.67;47.57;;
37833;Laerm;23678;48.778;9.160;2024-03-25T15:21:12;39.42;32.35;47.22;;